Flight Track Log - Related Links

Times and Time Zones

All times are in EDT time to prevent confusion due to time zone crossing. See the EJA727 flight status page for this flight to view local times or setup timezone preferences in your user account.


Time Position Orientation Groundspeed Altitude Reporting Facility
EDT Latitude Longitude Course Direction KTS MPH feet Rate Location/Type
Sun 05:51:10 PM 37.3500 -77.5667 267° West 249 287 2,800  Level Potomac TRACON
Sun 05:52:14 PM 37.3464 -77.6506 267° West 273 314 4,800 1,935 Climbing Washington Center
Sun 05:53:14 PM 37.3364 -77.7494 263° West 284 327 6,800 1,983 Climbing Washington Center
Sun 05:54:15 PM 37.3283 -77.8458 264° West 284 327 8,800 1,820 Climbing Washington Center
Sun 05:55:16 PM 37.3181 -77.9475 263° West 292 336 10,500 2,186 Climbing Washington Center
Sun 05:56:13 PM 37.3069 -78.0750 264° West 329 379 13,100 2,562 Climbing Washington Center
Sun 05:58:14 PM 37.2889 -78.3356 265° West 360 414 18,100 1,734 Climbing Washington Center
Sun 06:00:00 PM 37.3452 -78.5500 North  Level FlightAware Approximate
Sun 06:01:14 PM 37.4097 -78.7633 North 464 534 21,800  Level Washington Center
Sun 06:02:15 PM 37.4556 -78.9222 290° West 484 557 22,700 934 Climbing Washington Center
Sun 06:03:16 PM 37.5031 -79.0842 290° West 490 564 23,700 1,059 Climbing Washington Center
Sun 06:04:14 PM 37.5539 -79.2619 290° West 495 570 24,800 1,109 Climbing Washington Center
Sun 06:05:15 PM 37.5989 -79.4267 289° West 495 570 25,900 1,082 Climbing Washington Center
Sun 06:06:16 PM 37.6436 -79.5889 289° West 495 570 27,000 1,119 Climbing Washington Center
Sun 06:07:13 PM 37.6903 -79.7542 290° West 489 563 28,100 966 Climbing Washington Center
Sun 06:08:14 PM 37.7328 -79.9086 289° West 506 582 28,900 916 Climbing Washington Center
Sun 06:10:23 PM 37.8256 -80.2458 289° West 493 567 31,000 974 Climbing Indianapolis Center
Sun 06:11:25 PM 37.8672 -80.4308 286° West 468 539 32,000 484 Climbing Indianapolis Center
Sun 06:12:27 PM 37.8747 -80.5786 274° West 453 521 32,000  Level Indianapolis Center
Sun 06:13:29 PM 37.8842 -80.7392 274° West 455 524 32,000  Level Indianapolis Center
Sun 06:14:31 PM 37.8942 -80.9086 274° West 476 548 32,000  Level Indianapolis Center
Sun 06:16:36 PM 37.9131 -81.2839 274° West 485 558 32,000  Level Indianapolis Center
Sun 06:17:38 PM 37.9228 -81.4533 274° West 481 554 32,000  Level Indianapolis Center
Sun 06:18:40 PM 37.9308 -81.6256 273° West 486 559 32,000 -194 Level Indianapolis Center
Sun 06:19:42 PM 37.9389 -81.7986 273° West 489 563 31,600 -677 Descending Indianapolis Center
Sun 06:20:44 PM 37.9467 -81.9689 273° West 483 556 30,600 -1,016 Descending Indianapolis Center
Sun 06:21:46 PM 37.9544 -82.1389 273° West 480 552 29,500 -1,016 Descending Indianapolis Center
Sun 06:22:48 PM 37.9619 -82.3200 273° West 479 551 28,500 -1,161 Descending Indianapolis Center
Sun 06:23:50 PM 37.9686 -82.4869 273° West 477 549 27,100 -1,452 Descending Indianapolis Center
Sun 06:24:52 PM 37.9758 -82.6803 273° West 472 543 25,500 -1,452 Descending Indianapolis Center
Sun 06:25:54 PM 37.9825 -82.8408 273° West 460 529 24,100 -1,355 Descending Indianapolis Center
Sun 06:26:56 PM 37.9889 -83.0014 273° West 458 527 22,700 -1,452 Descending Indianapolis Center
Sun 06:27:58 PM 37.9944 -83.1592 273° West 452 520 21,100 -1,935 Descending Indianapolis Center
Sun 06:29:00 PM 38.0003 -83.3328 272° West 428 493 18,700 -2,081 Descending Indianapolis Center
Sun 06:30:02 PM 38.0047 -83.4725 272° West 405 466 16,800 -1,935 Descending Indianapolis Center
Sun 06:31:04 PM 38.0086 -83.6100 272° West 392 451 14,700 -1,984 Descending Indianapolis Center
Sun 06:32:06 PM 38.0119 -83.7414 272° West 380 437 12,700 -1,742 Descending Indianapolis Center
Sun 06:33:08 PM 38.0172 -83.8681 273° West 363 418 11,100 -919 Descending Indianapolis Center
Sun 06:34:10 PM 38.0208 -83.9911 272° West 353 406 10,800 -532 Descending Indianapolis Center
Sun 06:35:12 PM 38.0228 -84.1378 271° West 358 412 10,000 -532 Descending Indianapolis Center
Sun 06:36:14 PM 38.0044 -84.2472 258° West 318 366 9,700 -871 Descending Indianapolis Center
Sun 06:37:16 PM 37.9842 -84.3458 255° West 297 342 8,200 -1,403 Descending Indianapolis Center
Sun 06:38:18 PM 37.9500 -84.4342 244° Southwest 281 323 6,800 -1,500 Descending Indianapolis Center
Sun 06:39:20 PM 37.9167 -84.5158 243° Southwest 267 307 5,100 -1,790 Descending Indianapolis Center
Sun 06:40:22 PM 37.8789 -84.6089 243° Southwest 259 298 3,100 -1,016 Descending Indianapolis Center
Sun 06:41:24 PM 37.8497 -84.6839 244° Southwest 251 289 3,000 -48 Descending Indianapolis Center
Sun 06:42:26 PM 37.8864 -84.7417 309° West 223 257 3,000 -242 Level Indianapolis Center
Sun 06:43:28 PM 37.9325 -84.7256 15° North 187 215 2,500 -242 Descending Indianapolis Center
Sun 06:44:30 PM 37.9650 -84.6853 44° Northeast 174 200 2,500 -144 Level Indianapolis Center
Sun 06:45:33 PM 37.9989 -84.6464 42° Northeast 166 191 2,200 -286 Descending Indianapolis Center

Login

Don't have an account? Register now (free) for customized features, flight alerts, and more!